Aérodrome de Toulouse Bourg-Saint-Bernard

LFIT · Haute-Garonne, Occitanie, Frankreich

METAR-Geschichte LFIT · Toulouse Bourg St Bernard Airport

Unten siehst du die METARs der letzten paar Tage. Wähle ein Jahr, um ältere METARs ab dem Jahr 2007 zu durchsuchen.

1. Dezember 2022

Uhrzeit Code Wetter Temp. Sichtweite Wolkendecke Wind METAR/SPECI
04:00
I
4 °C 6 km 500 ft 350° 350° 3 kt METAR LFBO 010300Z AUTO 35003KT 280V040 6000 OVC005 04/04 Q1019 TEMPO 0800 FG VV///
03:30
I
4 °C 6 km 500 ft Var Var 2 kt METAR LFBO 010230Z AUTO VRB02KT 6000 OVC005 04/03 Q1019 TEMPO 0800 FG VV///
03:00
I
5 °C 5 km 500 ft 020° 020° 3 kt METAR LFBO 010200Z AUTO 02003KT 340V060 5000 BR OVC005 05/04 Q1019 TEMPO 0800 FG VV///
02:30
I
5 °C 5 km 500 ft 330° 330° 3 kt METAR LFBO 010130Z AUTO 33003KT 300V030 5000 BR OVC005 05/04 Q1019 TEMPO 0800 FG VV///
02:00
I
5 °C 5 km 500 ft 330° 330° 3 kt METAR LFBO 010100Z AUTO 33003KT 5000 BR OVC005 05/04 Q1019 TEMPO 0800 FG VV///
01:30
I
5 °C 6 km 600 ft 310° 310° 3 kt METAR LFBO 010030Z AUTO 31003KT 6000 OVC006 05/04 Q1019 TEMPO 0800 FG VV///
01:00
I
5 °C 6 km 600 ft Var Var 2 kt METAR LFBO 010000Z AUTO VRB02KT 6000 OVC006 05/03 Q1019 TEMPO 0800 FG VV///
00:30
I
5 °C 6 km 500 ft Var Var 2 kt METAR LFBO 302330Z AUTO VRB02KT 6000 OVC005 05/04 Q1019 TEMPO 0800 FG VV///
00:00
I
5 °C 6 km 500 ft Var Var 1 kt METAR LFBO 302300Z AUTO VRB01KT 6000 OVC005 05/04 Q1019 TEMPO 0800 FG VV///

30. November 2022

Uhrzeit Code Wetter Temp. Sichtweite Wolkendecke Wind METAR/SPECI
23:30
I
4 °C 5 km 600 ft Var Var 2 kt METAR LFBO 302230Z AUTO VRB02KT 5000 BR OVC006 04/04 Q1019 TEMPO 0800 FG VV///
23:00
I
4 °C 6 km 600 ft Var Var 3 kt METAR LFBO 302200Z AUTO VRB03KT 6000 OVC006 04/03 Q1019 TEMPO 0800 FG VV///
22:30
I
4 °C 6 km 500 ft 200° 200° 2 kt METAR LFBO 302130Z AUTO 20002KT 6000 OVC005 04/03 Q1019 TEMPO 0800 FG VV///
22:00
I
4 °C 6 km 500 ft Var Var 2 kt METAR LFBO 302100Z AUTO VRB02KT 6000 OVC005 04/03 Q1019 TEMPO 0800 FG VV///
21:30
I
4 °C 6 km 500 ft Var Var 3 kt METAR LFBO 302030Z AUTO VRB03KT 6000 OVC005 04/03 Q1019 TEMPO 0800 FG VV///
21:00
I
4 °C 6 km 500 ft 210° 210° 4 kt METAR LFBO 302000Z AUTO 21004KT 6000 OVC005 04/03 Q1019 BECMG 4000 BR
20:30
I
4 °C 7 km 500 ft Var Var 1 kt METAR LFBO 301930Z AUTO VRB01KT 7000 OVC005 04/03 Q1019 BECMG 4000 BR
20:00
I
4 °C 7 km 600 ft 220° 220° 3 kt METAR LFBO 301900Z AUTO 22003KT 7000 OVC006 04/03 Q1018 BECMG 4000 BR OVC004
19:30
I
4 °C 9 km 600 ft 190° 190° 3 kt METAR LFBO 301830Z AUTO 19003KT 9000 OVC006 04/03 Q1018 BECMG 4000 BR OVC004
19:00
I
5 °C 10 km+ 700 ft 180° 180° 3 kt METAR LFBO 301800Z AUTO 18003KT 150V220 9999 OVC007 05/03 Q1018 BECMG 4000 BR OVC004
18:30
I
5 °C 10 km+ 700 ft Var Var 2 kt METAR LFBO 301730Z AUTO VRB02KT 9999 OVC007 05/03 Q1018 BECMG 4000 BR OVC004
18:00
I
5 °C 10 km+ 800 ft Var Var 2 kt METAR LFBO 301700Z AUTO VRB02KT 9999 OVC008 05/03 Q1018 BECMG 4000 BR OVC004
17:30
I
5 °C 10 km+ 800 ft Var Var 2 kt METAR LFBO 301630Z AUTO VRB02KT 9999 OVC008 05/03 Q1018 BECMG 4000 BR OVC004
17:00
I
5 °C 10 km+ 800 ft 360° 360° 3 kt METAR LFBO 301600Z AUTO 36003KT 9999 OVC008 05/03 Q1018 NOSIG
16:30
I
5 °C 10 km+ 800 ft 360° 360° 3 kt METAR LFBO 301530Z AUTO 36003KT 330V050 9999 OVC008 05/03 Q1018 NOSIG
16:00
I
5 °C 10 km+ 800 ft Var Var 2 kt METAR LFBO 301500Z AUTO VRB02KT 9999 OVC008 05/03 Q1018 NOSIG
15:30
I
5 °C 10 km+ 800 ft Var Var 2 kt METAR LFBO 301430Z AUTO VRB02KT 9999 OVC008 05/04 Q1018 NOSIG
15:00
I
5 °C 10 km+ 800 ft 010° 010° 4 kt METAR LFBO 301400Z AUTO 01004KT 310V100 9999 OVC008 05/04 Q1018 NOSIG
14:30
I
5 °C 10 km+ 800 ft 020° 020° 3 kt METAR LFBO 301330Z AUTO 02003KT 300V100 9999 OVC008 05/03 Q1018 NOSIG
14:00
I
5 °C 10 km+ 700 ft Var Var 2 kt METAR LFBO 301300Z AUTO VRB02KT 9999 OVC007 05/04 Q1018 NOSIG
13:30
I
5 °C 10 km+ 700 ft Var Var 3 kt METAR LFBO 301230Z AUTO VRB03KT 9999 OVC007 05/04 Q1018 NOSIG
13:00
I
5 °C 10 km+ 600 ft Var Var 3 kt METAR LFBO 301200Z AUTO VRB03KT 9999 OVC006 05/04 Q1018 NOSIG
12:30
I
5 °C 8 km 500 ft Var Var 3 kt METAR LFBO 301130Z AUTO VRB03KT 8000 OVC005 05/04 Q1019 BECMG BKN012
12:00
I
5 °C 8 km 500 ft 010° 010° 4 kt METAR LFBO 301100Z AUTO 01004KT 330V040 8000 OVC005 05/04 Q1019 BECMG BKN012
11:30
L
5 °C 6 km 400 ft Var Var 2 kt METAR LFBO 301030Z AUTO VRB02KT 6000 OVC004 05/04 Q1019 BECMG BKN012
11:00
L
4 °C 7 km 400 ft Var Var 3 kt METAR LFBO 301000Z AUTO VRB03KT 7000 OVC004 04/04 Q1019 BECMG BKN007
10:30
L
4 °C 6 km 300 ft Var Var 3 kt METAR LFBO 300930Z AUTO VRB03KT 6000 OVC003 04/04 Q1019 BECMG BKN007
10:00
L
4 °C 6 km 400 ft 020° 020° 3 kt METAR LFBO 300900Z AUTO 02003KT 330V050 6000 OVC004 04/04 Q1019 TEMPO 3000 BR BECMG BKN007
09:30
L
4 °C 8 km 400 ft Var Var 2 kt METAR LFBO 300830Z AUTO VRB02KT 8000 OVC004 04/04 Q1019 TEMPO 3000 BR BECMG BKN007
09:00
I
4 °C 9 km 500 ft Var Var 3 kt METAR LFBO 300800Z AUTO VRB03KT 9000 OVC005 04/04 Q1019 TEMPO 3000 BR VV///
08:30
I
4 °C 10 km+ 500 ft Var Var 2 kt METAR LFBO 300730Z AUTO VRB02KT 9999 OVC005 04/04 Q1019 TEMPO 3000 BR VV///
08:00
I
4 °C 10 km+ 500 ft Var Var 2 kt METAR LFBO 300700Z AUTO VRB02KT 9999 OVC005 04/04 Q1019 TEMPO 0600 FG VV///
07:30
I
5 °C 10 km+ 500 ft Var Var 3 kt METAR LFBO 300630Z AUTO VRB03KT 9999 OVC005 05/04 Q1019 TEMPO 0600 FG VV///
07:00
L
5 °C 7 km 300 ft 060° 060° 4 kt METAR LFBO 300600Z AUTO 06004KT 040V110 7000 OVC003 05/05 Q1019 TEMPO 0600 FG VV///
06:30
L
5 °C 1 km - Var Var 2 kt METAR LFBO 300530Z AUTO VRB02KT 2100 1000 R14R/1300U R32L/P2000 R14L/2000D R32R/P2000 BR VV/// 05/05 Q1019 TEMPO 0300
06:00
L
5 °C 1,6 km - Var 000° 0 kt METAR LFBO 300500Z AUTO 00000KT 3300 1600 BR VV/// 05/05 Q1019 TEMPO 0300
05:30
L
5 °C 1,9 km 300 ft Var 000° 0 kt METAR LFBO 300430Z AUTO 00000KT 4200 1900 BR OVC003 05/04 Q1019 TEMPO 0300 VV///
05:00
L
4 °C 7 km 300 ft Var 000° 0 kt METAR LFBO 300400Z AUTO 00000KT 7000 OVC003 04/04 Q1019 TEMPO 0300 VV///
04:30
L
4 °C 7 km 300 ft 190° 190° 3 kt METAR LFBO 300330Z AUTO 19003KT 7000 OVC003 04/04 Q1019 TEMPO 0300 VV///
04:00
L
3 °C 6 km 400 ft 210° 210° 2 kt METAR LFBO 300300Z AUTO 21002KT 6000 OVC004 03/03 Q1020 TEMPO 0300 VV///
03:30
I
3 °C 4,4 km 500 ft 180° 180° 3 kt METAR LFBO 300230Z AUTO 18003KT 4400 BR BKN005 BKN043 03/03 Q1020 TEMPO 0300 VV///
03:00
I
4 °C 3,2 km 4.300 ft 110° 110° 3 kt METAR LFBO 300200Z AUTO 11003KT 9999 3200 BKN043 04/03 Q1020 TEMPO 0300 VV///
02:30
V
2 °C 10 km+ 4.600 ft 200° 200° 2 kt METAR LFBO 300130Z AUTO 20002KT 9999 OVC046 02/02 Q1020 TEMPO 0300 VV///
02:00
V
2 °C 10 km+ - 240° 240° 1 kt METAR LFBO 300100Z AUTO 24001KT 9999 SCT047 02/02 Q1020 BECMG 0600 FG OVC002
01:30
I
3 °C 3,4 km - 290° 290° 2 kt METAR LFBO 300030Z AUTO 29002KT 9999 3400 R32L/1100U FEW004 03/02 Q1020 BECMG 0600 FG OVC002
01:00
M
4 °C 7 km - Var 000° 0 kt METAR LFBO 300000Z AUTO 00000KT 7000 R14R/0800D NSC 04/03 Q1020 BECMG 3000 BR
00:30
M
4 °C 7 km - 300° 300° 3 kt METAR LFBO 292330Z AUTO 30003KT 7000 NSC 04/03 Q1020 BECMG 0500 FG VV///
00:00
M
5 °C 7 km - 330° 330° 3 kt METAR LFBO 292300Z AUTO 33003KT 7000 NSC 05/04 Q1020 BECMG 0500 FG VV///

29. November 2022

Uhrzeit Code Wetter Temp. Sichtweite Wolkendecke Wind METAR/SPECI
23:30
M
4 °C 7 km - 320° 320° 5 kt METAR LFBO 292230Z AUTO 32005KT 7000 R14L/1200U NSC 04/04 Q1020 BECMG 0500 FG VV///
23:00
V
5 °C 10 km+ - 320° 320° 4 kt METAR LFBO 292200Z AUTO 32004KT 9999 NSC 05/04 Q1020 BECMG 3000 BR
22:30
V
5 °C 10 km+ - 310° 310° 4 kt METAR LFBO 292130Z AUTO 31004KT 9999 NSC 05/04 Q1020 BECMG 3000 BR
22:00
V
5 °C 9 km - 310° 310° 3 kt METAR LFBO 292100Z AUTO 31003KT 9000 NSC 05/04 Q1020 BECMG 3000 BR
21:30
V
5 °C 10 km+ - 310° 310° 3 kt METAR LFBO 292030Z AUTO 31003KT 280V350 9999 NSC 05/05 Q1020 BECMG 3000 BR
21:00
V
6 °C 10 km+ - 310° 310° 4 kt METAR LFBO 292000Z AUTO 31004KT 9999 NSC 06/05 Q1020 BECMG 3000 BR
20:30
V
6 °C 10 km+ - 310° 310° 3 kt METAR LFBO 291930Z AUTO 31003KT 9999 NSC 06/06 Q1020 BECMG 3000 BR
20:00
V
6 °C 10 km+ - 300° 300° 4 kt METAR LFBO 291900Z AUTO 30004KT 9999 NSC 06/05 Q1020 BECMG 3000 BR
19:30
V
7 °C 10 km+ - 310° 310° 4 kt METAR LFBO 291830Z AUTO 31004KT 9999 NSC 07/05 Q1020 BECMG 3000 BR
19:00
V
7 °C 10 km+ - 320° 320° 5 kt METAR LFBO 291800Z AUTO 32005KT 9999 NSC 07/06 Q1020 NOSIG
18:30
V
8 °C 10 km+ - Var Var 3 kt METAR LFBO 291730Z AUTO VRB03KT 9999 NSC 08/06 Q1020 NOSIG
18:00
V
8 °C 10 km+ - 320° 320° 4 kt METAR LFBO 291700Z AUTO 32004KT 9999 NSC 08/05 Q1020 NOSIG
17:30
V
9 °C 10 km+ - 340° 340° 5 kt METAR LFBO 291630Z AUTO 34005KT 9999 NSC 09/06 Q1020 NOSIG
17:00
V
10 °C 10 km+ - 330° 330° 9 kt METAR LFBO 291600Z AUTO 33009KT 9999 FEW022 10/07 Q1019 NOSIG
16:30
V
11 °C 10 km+ 5.800 ft 330° 330° 7 kt METAR LFBO 291530Z AUTO 33007KT 9999 FEW022 BKN058 11/07 Q1019 NOSIG
16:00
V
11 °C 10 km+ - 340° 340° 8 kt METAR LFBO 291500Z AUTO 34008KT 310V020 9999 FEW023 SCT064 11/07 Q1019 NOSIG
15:30
V
11 °C 10 km+ 5.800 ft 340° 340° 9 kt METAR LFBO 291430Z AUTO 34009KT 9999 SCT018 SCT027 BKN058 11/07 Q1019 NOSIG
15:00
V
11 °C 10 km+ - 350° 350° 9 kt METAR LFBO 291400Z AUTO 35009KT 320V030 9999 FEW016 11/07 Q1019 NOSIG
14:30
V
11 °C 10 km+ - 340° 340° 9 kt METAR LFBO 291330Z AUTO 34009KT 9999 FEW014 SCT039 11/07 Q1019 NOSIG
14:00
V
11 °C 10 km+ 3.300 ft 340° 340° 9 kt METAR LFBO 291300Z AUTO 34009KT 9999 SCT014 BKN033 11/07 Q1020 NOSIG
13:30
M
12 °C 10 km+ 2.100 ft 350° 350° 9 kt METAR LFBO 291230Z AUTO 35009KT 320V020 9999 SCT015 BKN021 BKN034 12/08 Q1020 NOSIG
13:00
M
12 °C 10 km+ 2.000 ft 330° 330° 8 kt METAR LFBO 291200Z AUTO 33008KT 9999 SCT015 BKN020 BKN027 12/08 Q1020 NOSIG
12:30
M
12 °C 10 km+ 1.500 ft 330° 330° 8 kt METAR LFBO 291130Z AUTO 33008KT 310V010 9999 BKN015 BKN020 BKN033 12/08 Q1020 TEMPO BKN008
12:00
M
11 °C 10 km+ 1.500 ft 300° 300° 11 kt METAR LFBO 291100Z AUTO 30011KT 9999 BKN015 BKN020 BKN030 11/08 Q1020 TEMPO BKN008
11:30
M
10 °C 10 km+ 1.400 ft 310° 310° 11 kt METAR LFBO 291030Z AUTO 31011KT 9999 BKN014 OVC043 10/08 Q1020 TEMPO BKN008
11:00
M
10 °C 10 km+ 1.800 ft 310° 310° 11 kt METAR LFBO 291000Z AUTO 31011KT 9999 FEW011 BKN018 OVC043 10/09 Q1020 TEMPO BKN008
10:30
M
10 °C 10 km+ 1.300 ft 300° 300° 8 kt METAR LFBO 290930Z AUTO 30008KT 9999 OVC013 10/08 Q1020 TEMPO BKN008
10:00
M
9 °C 10 km+ 1.000 ft 280° 280° 8 kt METAR LFBO 290900Z AUTO 28008KT 9999 BKN010 OVC016 09/08 Q1020 NOSIG
09:30
M
9 °C 10 km+ 1.000 ft 290° 290° 7 kt METAR LFBO 290830Z AUTO 29007KT 9999 BKN010/// BKN016/// BKN039/// //////CB 09/08 Q1020 TEMPO BKN008
09:00
I
9 °C 10 km+ 900 ft 280° 280° 9 kt METAR LFBO 290800Z AUTO 28009KT 9999 -RA BKN009/// OVC013/// //////TCU 09/08 Q1019 TEMPO BKN008
08:30
I
9 °C 10 km+ 900 ft 280° 280° 7 kt METAR LFBO 290730Z AUTO 28007KT 9999 OVC009/// //////TCU 09/08 Q1019 TEMPO BKN008
08:00
I
9 °C 10 km+ 800 ft 300° 300° 7 kt METAR LFBO 290700Z AUTO 30007KT 9999 BKN008 BKN027 BKN039 09/08 Q1019 NOSIG
07:30
V
9 °C 10 km+ 5.200 ft 280° 280° 8 kt METAR LFBO 290630Z AUTO 28008KT 9999 FEW003/// SCT041/// BKN052/// //////TCU 09/07 Q1019 TEMPO BKN008
07:00
V
8 °C 10 km+ - 270° 270° 9 kt METAR LFBO 290600Z AUTO 27009KT 9999 ///TCU 08/07 Q1019 TEMPO 4000 RA BKN006 BKN035TCU
06:30
V
8 °C 10 km+ - 270° 270° 9 kt METAR LFBO 290530Z AUTO 27009KT 9999 NSC 08/07 Q1019 TEMPO 4000 RA BKN006 BKN035TCU
06:00
V
8 °C 10 km+ - 270° 270° 8 kt METAR LFBO 290500Z AUTO 27008KT 9999 NSC 08/07 Q1019 TEMPO 4000 RA BKN006 BKN035TCU
05:30
V
8 °C 10 km+ 7.000 ft 270° 270° 8 kt METAR LFBO 290430Z AUTO 27008KT 9999 FEW008 BKN070 BKN100 08/07 Q1019 TEMPO 4000 RA BKN006 BKN035TCU
05:00
V
8 °C 10 km+ 5.400 ft 270° 270° 9 kt METAR LFBO 290400Z AUTO 27009KT 9999 FEW007 SCT043 BKN054 08/07 Q1019 TEMPO 4000 RA BKN006 BKN035TCU
04:30
I
8 °C 10 km+ 700 ft 270° 270° 8 kt METAR LFBO 290330Z AUTO 27008KT 9999 OVC007 08/07 Q1019 TEMPO 4000 RA BKN006 BKN035TCU
04:00
I
8 °C 10 km+ 700 ft 260° 260° 11 kt METAR LFBO 290300Z AUTO 26011KT 9999 BKN007 BKN012 BKN033 08/07 Q1019 BECMG BKN035
03:30
I
8 °C 10 km+ 700 ft 270° 270° 11 kt METAR LFBO 290230Z AUTO 27011KT 9999 BKN007 OVC029 08/07 Q1019 BECMG BKN035
03:00
V
8 °C 10 km+ 3.400 ft 270° 270° 10 kt METAR LFBO 290200Z AUTO 27010KT 9999 SCT007 BKN034 BKN110 08/07 Q1019 NOSIG
02:30
V
8 °C 10 km+ 11.000 ft 270° 270° 11 kt METAR LFBO 290130Z AUTO 27011KT 9999 FEW007 SCT044 BKN110 08/07 Q1019 NOSIG
02:00
V
8 °C 10 km+ 4.300 ft 260° 260° 12 kt METAR LFBO 290100Z AUTO 26012KT 9999 FEW036 BKN043 BKN049 08/07 Q1019 NOSIG
01:30
V
8 °C 10 km+ - 260° 260° 11 kt METAR LFBO 290030Z AUTO 26011KT 9999 FEW035 SCT046 08/07 Q1019 NOSIG
01:00
V
8 °C 10 km+ - 260° 260° 11 kt METAR LFBO 290000Z AUTO 26011KT 9999 FEW034 SCT041 08/07 Q1020 NOSIG
00:30
V
8 °C 10 km+ - 260° 260° 11 kt METAR LFBO 282330Z AUTO 26011KT 9999 SCT039 08/07 Q1020 BECMG BKN008
00:00
V
8 °C 10 km+ - 250° 250° 10 kt METAR LFBO 282300Z AUTO 25010KT 9999 FEW009 08/07 Q1020 BECMG BKN008

28. November 2022

Uhrzeit Code Wetter Temp. Sichtweite Wolkendecke Wind METAR/SPECI
23:30
V
9 °C 10 km+ - 260° 260° 11 kt METAR LFBO 282230Z AUTO 26011KT 9999 NSC 09/07 Q1020 BECMG BKN008
23:00
V
9 °C 10 km+ - 250° 250° 11 kt METAR LFBO 282200Z AUTO 25011KT 9999 NSC 09/07 Q1020 NOSIG
22:30
V
9 °C 10 km+ - 250° 250° 8 kt METAR LFBO 282130Z AUTO 25008KT 9999 FEW033 09/07 Q1020 NOSIG
22:00
V
9 °C 10 km+ - 260° 260° 10 kt METAR LFBO 282100Z AUTO 26010KT 9999 FEW034 SCT054 09/07 Q1020 NOSIG
21:30
V
9 °C 10 km+ - 260° 260° 9 kt METAR LFBO 282030Z AUTO 26009KT 9999 //////TCU 09/07 Q1020 BECMG BKN035
21:00
V
9 °C 10 km+ - 250° 250° 10 kt METAR LFBO 282000Z AUTO 25010KT 9999 NSC 09/07 Q1019 NOSIG
20:30
V
10 °C 10 km+ 5.000 ft 250° 250° 11 kt METAR LFBO 281930Z AUTO 25011KT 220V280 9999 FEW039/// BKN050/// BKN062/// ///TCU 10/07 Q1019 BECMG BKN035
20:00
V
10 °C 10 km+ 5.800 ft 260° 260° 15 kt METAR LFBO 281900Z AUTO 26015KT 9999 FEW037/// BKN058/// BKN086/// //////TCU 10/07 Q1019 TEMPO 4500 SHRA BECMG NSC
19:30
V
10 °C 10 km+ 5.000 ft 250° 250° 14 kt METAR LFBO 281830Z AUTO 25014KT 9999 FEW034/// BKN050/// BKN064/// //////CB 10/07 Q1019 TEMPO 4500 SHRA BECMG NSC
19:00
V
10 °C 10 km+ 6.600 ft 250° 250° 12 kt METAR LFBO 281800Z AUTO 25012KT 210V270 9999 FEW019/// SCT056/// BKN066/// //////CB 10/07 Q1019 TEMPO 4500 SHRA BKN014 BKN040TCU
18:30
V
10 °C 10 km+ 4.600 ft 240° 240° 11 kt METAR LFBO 281730Z AUTO 24011KT 9999 FEW019 BKN046 BKN056 10/07 Q1019 NOSIG
18:00
V
10 °C 10 km+ - 250° 250° 13 kt METAR LFBO 281700Z AUTO 25013KT 9999 FEW024 SCT240 10/07 Q1018 TEMPO 4000 -SHRA BKN020 BKN045TCU
17:30
M
11 °C 10 km+ 2.200 ft 260° 260° 13 kt METAR LFBO 281630Z AUTO 26013KT 9999 BKN022 BKN033 BKN039 11/08 Q1018 TEMPO 4000 -SHRA BKN020 BKN045TCU
17:00
M
11 °C 10 km+ 2.300 ft 260° 260° 14 kt METAR LFBO 281600Z AUTO 26014KT 9999 BKN023/// BKN034/// OVC060/// ///TCU 11/08 Q1018 TEMPO 4000 -SHRA
16:30
M
11 °C 10 km+ 2.400 ft 260° 260° 12 kt METAR LFBO 281530Z AUTO 26012KT 9999 BKN024/// BKN034/// BKN042/// //////TCU 11/08 Q1018 TEMPO 4000 -SHRA
16:00
M
12 °C 10 km+ 2.500 ft 260° 260° 14 kt METAR LFBO 281500Z AUTO 26014KT 9999 BKN025/// BKN044/// BKN058/// ///CB 12/08 Q1018 TEMPO 4000 -SHRA
15:30
M
12 °C 10 km+ 2.900 ft 270° 270° 14 kt METAR LFBO 281430Z AUTO 27014KT 9999 FEW024/// BKN029/// BKN039/// //////CB 12/09 Q1018 TEMPO 4000 -SHRA
15:00
V
12 °C 10 km+ 3.900 ft 270° 270° 15 kt METAR LFBO 281400Z AUTO 27015KT 9999 FEW025/// BKN039/// BKN054/// //////CB 12/07 Q1018 TEMPO 4000 -SHRA
14:30
V
13 °C 10 km+ - 270° 270° 12 kt METAR LFBO 281330Z AUTO 27012KT 9999 SCT022 SCT029 13/08 Q1018 TEMPO 4000 -SHRA BKN020 BKN045TCU
14:00
M
12 °C 10 km+ 2.800 ft 280° 280° 15 kt METAR LFBO 281300Z AUTO 28015KT 9999 SCT021 BKN028 BKN043 12/08 Q1018 TEMPO 4000 -SHRA BKN020 BKN045TCU
13:30
M
12 °C 10 km+ 1.900 ft 270° 270° 15 kt METAR LFBO 281230Z AUTO 27015KT 9999 BKN019 BKN024 BKN029 12/08 Q1018 TEMPO 4000 -SHRA BKN020 BKN045TCU
13:00
M
12 °C 10 km+ 1.700 ft 270° 270° 11 kt METAR LFBO 281200Z AUTO 27011KT 240V300 9999 BKN017 BKN060 BKN190 12/09 Q1018 TEMPO 4000 -SHRA BKN020 BKN045TCU
12:30
V
11 °C 10 km+ 21.000 ft 260° 260° 12 kt METAR LFBO 281130Z AUTO 26012KT 9999 FEW013 SCT190 BKN210 11/09 Q1019 TEMPO SCT015TCU BKN025
12:00
V
10 °C 10 km+ 20.000 ft 260° 260° 12 kt METAR LFBO 281100Z AUTO 26012KT 9999 FEW014 BKN200 BKN220 10/08 Q1019 TEMPO SCT015TCU BKN025
11:30
M
10 °C 10 km+ 1.100 ft 260° 260° 12 kt METAR LFBO 281030Z AUTO 26012KT 9999 BKN011 BKN056 BKN080 10/08 Q1019 TEMPO SCT015TCU BKN025
11:00
V
10 °C 10 km+ - 260° 260° 13 kt METAR LFBO 281000Z AUTO 26013KT CAVOK 10/08 Q1019 TEMPO SCT015TCU BKN025

Wir und Dritte verfolgen dein Internetverhalten auf unserer Website mit Cookies. Wenn du fortfährst, gehen wir davon aus, dass du mit unserer Cookie-Richtlinie einverstanden bist.